sensor_id;sensor_type;location;lat;lon;timestamp;P1;durP1;ratioP1;P2;durP2;ratioP2
7583;SDS011;3833;41.764;26.204;2023-02-01T00:00:56;4.67;;;4.17;;
7583;SDS011;3833;41.764;26.204;2023-02-01T00:03:23;4.87;;;4.47;;
7583;SDS011;3833;41.764;26.204;2023-02-01T00:05:55;5.37;;;4.43;;
7583;SDS011;3833;41.764;26.204;2023-02-01T00:08:23;4.90;;;4.50;;
7583;SDS011;3833;41.764;26.204;2023-02-01T00:10:58;5.20;;;4.30;;
7583;SDS011;3833;41.764;26.204;2023-02-01T00:13:27;5.27;;;4.53;;
7583;SDS011;3833;41.764;26.204;2023-02-01T00:15:54;4.97;;;4.50;;
7583;SDS011;3833;41.764;26.204;2023-02-01T00:18:21;4.40;;;4.00;;
7583;SDS011;3833;41.764;26.204;2023-02-01T00:20:48;4.93;;;4.43;;
7583;SDS011;3833;41.764;26.204;2023-02-01T00:23:15;4.90;;;4.43;;
7583;SDS011;3833;41.764;26.204;2023-02-01T00:25:42;5.03;;;4.17;;
7583;SDS011;3833;41.764;26.204;2023-02-01T00:28:10;5.33;;;4.87;;
7583;SDS011;3833;41.764;26.204;2023-02-01T00:30:38;5.00;;;4.53;;
7583;SDS011;3833;41.764;26.204;2023-02-01T00:33:04;5.50;;;4.87;;
7583;SDS011;3833;41.764;26.204;2023-02-01T00:35:31;5.93;;;5.33;;
7583;SDS011;3833;41.764;26.204;2023-02-01T00:38:00;5.67;;;5.17;;
7583;SDS011;3833;41.764;26.204;2023-02-01T00:40:27;6.93;;;5.70;;
7583;SDS011;3833;41.764;26.204;2023-02-01T00:42:53;6.43;;;5.83;;
7583;SDS011;3833;41.764;26.204;2023-02-01T00:45:23;6.23;;;5.60;;
7583;SDS011;3833;41.764;26.204;2023-02-01T00:47:50;10.77;;;8.77;;
7583;SDS011;3833;41.764;26.204;2023-02-01T00:50:17;7.30;;;6.60;;
7583;SDS011;3833;41.764;26.204;2023-02-01T00:52:44;7.73;;;6.93;;
7583;SDS011;3833;41.764;26.204;2023-02-01T00:55:11;6.90;;;6.20;;
7583;SDS011;3833;41.764;26.204;2023-02-01T00:57:38;13.93;;;9.00;;
7583;SDS011;3833;41.764;26.204;2023-02-01T01:00:05;11.97;;;9.00;;
7583;SDS011;3833;41.764;26.204;2023-02-01T01:02:34;11.97;;;9.80;;
7583;SDS011;3833;41.764;26.204;2023-02-01T01:05:01;10.30;;;9.20;;
7583;SDS011;3833;41.764;26.204;2023-02-01T01:07:27;10.40;;;8.53;;
7583;SDS011;3833;41.764;26.204;2023-02-01T01:09:54;9.80;;;8.13;;
7583;SDS011;3833;41.764;26.204;2023-02-01T01:12:21;14.03;;;11.07;;
7583;SDS011;3833;41.764;26.204;2023-02-01T01:14:48;13.83;;;11.23;;
7583;SDS011;3833;41.764;26.204;2023-02-01T01:17:15;11.73;;;9.17;;
7583;SDS011;3833;41.764;26.204;2023-02-01T01:19:43;13.50;;;10.37;;
7583;SDS011;3833;41.764;26.204;2023-02-01T01:22:10;12.20;;;10.60;;
7583;SDS011;3833;41.764;26.204;2023-02-01T01:24:37;12.27;;;10.20;;
7583;SDS011;3833;41.764;26.204;2023-02-01T01:27:03;12.97;;;10.80;;
7583;SDS011;3833;41.764;26.204;2023-02-01T01:29:30;12.13;;;10.83;;
7583;SDS011;3833;41.764;26.204;2023-02-01T01:31:57;14.30;;;11.23;;
7583;SDS011;3833;41.764;26.204;2023-02-01T01:34:24;11.90;;;10.67;;
7583;SDS011;3833;41.764;26.204;2023-02-01T01:36:52;12.57;;;10.53;;
7583;SDS011;3833;41.764;26.204;2023-02-01T01:39:19;13.83;;;11.93;;
7583;SDS011;3833;41.764;26.204;2023-02-01T01:41:46;13.73;;;11.87;;
7583;SDS011;3833;41.764;26.204;2023-02-01T01:47:17;13.53;;;11.10;;
7583;SDS011;3833;41.764;26.204;2023-02-01T01:49:44;14.73;;;11.17;;
7583;SDS011;3833;41.764;26.204;2023-02-01T01:52:12;13.90;;;10.83;;
7583;SDS011;3833;41.764;26.204;2023-02-01T01:54:40;11.80;;;10.60;;
7583;SDS011;3833;41.764;26.204;2023-02-01T01:57:11;12.27;;;9.90;;
7583;SDS011;3833;41.764;26.204;2023-02-01T01:59:41;10.90;;;9.80;;
7583;SDS011;3833;41.764;26.204;2023-02-01T02:02:12;12.00;;;10.67;;
7583;SDS011;3833;41.764;26.204;2023-02-01T02:04:39;12.10;;;10.10;;
7583;SDS011;3833;41.764;26.204;2023-02-01T02:07:08;11.70;;;9.47;;
7583;SDS011;3833;41.764;26.204;2023-02-01T02:09:39;13.77;;;9.87;;
7583;SDS011;3833;41.764;26.204;2023-02-01T02:12:08;10.63;;;9.57;;
7583;SDS011;3833;41.764;26.204;2023-02-01T02:14:34;10.43;;;9.40;;
7583;SDS011;3833;41.764;26.204;2023-02-01T02:26:11;9.10;;;8.30;;
7583;SDS011;3833;41.764;26.204;2023-02-01T02:28:57;9.40;;;8.50;;
7583;SDS011;3833;41.764;26.204;2023-02-01T02:31:54;10.07;;;8.53;;
7583;SDS011;3833;41.764;26.204;2023-02-01T02:34:35;9.27;;;8.27;;
7583;SDS011;3833;41.764;26.204;2023-02-01T02:37:09;8.90;;;8.17;;
7583;SDS011;3833;41.764;26.204;2023-02-01T02:39:47;10.50;;;8.30;;
7583;SDS011;3833;41.764;26.204;2023-02-01T02:42:21;9.23;;;8.33;;
7583;SDS011;3833;41.764;26.204;2023-02-01T02:45:12;10.10;;;9.17;;
7583;SDS011;3833;41.764;26.204;2023-02-01T02:48:02;9.90;;;8.90;;
7583;SDS011;3833;41.764;26.204;2023-02-01T02:50:40;8.43;;;7.63;;
7583;SDS011;3833;41.764;26.204;2023-02-01T02:53:30;10.30;;;8.53;;
7583;SDS011;3833;41.764;26.204;2023-02-01T02:56:20;9.60;;;8.40;;
7583;SDS011;3833;41.764;26.204;2023-02-01T02:59:08;8.80;;;8.10;;
7583;SDS011;3833;41.764;26.204;2023-02-01T03:01:53;10.50;;;9.50;;
7583;SDS011;3833;41.764;26.204;2023-02-01T03:04:38;8.67;;;7.90;;
7583;SDS011;3833;41.764;26.204;2023-02-01T03:07:14;8.37;;;7.67;;
7583;SDS011;3833;41.764;26.204;2023-02-01T03:10:02;9.90;;;8.97;;
7583;SDS011;3833;41.764;26.204;2023-02-01T03:12:31;9.37;;;8.47;;
7583;SDS011;3833;41.764;26.204;2023-02-01T03:15:22;9.33;;;8.40;;
7583;SDS011;3833;41.764;26.204;2023-02-01T03:17:52;8.50;;;7.70;;
7583;SDS011;3833;41.764;26.204;2023-02-01T03:20:24;9.13;;;8.20;;
7583;SDS011;3833;41.764;26.204;2023-02-01T03:22:55;9.03;;;8.13;;
7583;SDS011;3833;41.764;26.204;2023-02-01T03:25:25;9.43;;;8.53;;
7583;SDS011;3833;41.764;26.204;2023-02-01T03:27:57;8.83;;;8.03;;
7583;SDS011;3833;41.764;26.204;2023-02-01T03:30:28;8.47;;;7.67;;
7583;SDS011;3833;41.764;26.204;2023-02-01T03:33:00;9.20;;;8.40;;
7583;SDS011;3833;41.764;26.204;2023-02-01T03:35:30;10.00;;;8.40;;
7583;SDS011;3833;41.764;26.204;2023-02-01T03:38:03;8.67;;;7.77;;
7583;SDS011;3833;41.764;26.204;2023-02-01T03:40:39;7.30;;;6.70;;
7583;SDS011;3833;41.764;26.204;2023-02-01T03:43:12;6.87;;;6.27;;
7583;SDS011;3833;41.764;26.204;2023-02-01T03:45:45;8.27;;;7.40;;
7583;SDS011;3833;41.764;26.204;2023-02-01T03:48:16;8.63;;;7.60;;
7583;SDS011;3833;41.764;26.204;2023-02-01T03:50:46;8.77;;;8.00;;
7583;SDS011;3833;41.764;26.204;2023-02-01T03:53:19;10.00;;;9.03;;
7583;SDS011;3833;41.764;26.204;2023-02-01T03:55:48;9.33;;;8.53;;
7583;SDS011;3833;41.764;26.204;2023-02-01T03:58:18;10.60;;;9.80;;
7583;SDS011;3833;41.764;26.204;2023-02-01T04:00:49;8.87;;;8.17;;
7583;SDS011;3833;41.764;26.204;2023-02-01T04:03:17;10.00;;;9.20;;
7583;SDS011;3833;41.764;26.204;2023-02-01T04:05:44;10.03;;;9.23;;
7583;SDS011;3833;41.764;26.204;2023-02-01T04:08:11;8.80;;;8.10;;
7583;SDS011;3833;41.764;26.204;2023-02-01T04:10:39;8.73;;;7.93;;
7583;SDS011;3833;41.764;26.204;2023-02-01T04:13:06;8.17;;;7.50;;
7583;SDS011;3833;41.764;26.204;2023-02-01T04:15:32;8.33;;;7.53;;
7583;SDS011;3833;41.764;26.204;2023-02-01T04:18:00;7.73;;;7.13;;
7583;SDS011;3833;41.764;26.204;2023-02-01T04:20:27;7.60;;;7.10;;
7583;SDS011;3833;41.764;26.204;2023-02-01T04:22:54;8.50;;;7.80;;
7583;SDS011;3833;41.764;26.204;2023-02-01T04:25:21;8.27;;;6.50;;
7583;SDS011;3833;41.764;26.204;2023-02-01T04:27:49;6.70;;;6.07;;
7583;SDS011;3833;41.764;26.204;2023-02-01T04:30:16;5.60;;;5.13;;
7583;SDS011;3833;41.764;26.204;2023-02-01T04:32:43;6.33;;;5.73;;
7583;SDS011;3833;41.764;26.204;2023-02-01T04:35:10;6.23;;;5.57;;
7583;SDS011;3833;41.764;26.204;2023-02-01T04:37:37;5.60;;;5.10;;
7583;SDS011;3833;41.764;26.204;2023-02-01T04:40:04;6.10;;;5.60;;
7583;SDS011;3833;41.764;26.204;2023-02-01T04:42:32;5.50;;;5.00;;
7583;SDS011;3833;41.764;26.204;2023-02-01T04:45:00;5.87;;;4.93;;
7583;SDS011;3833;41.764;26.204;2023-02-01T04:47:26;5.73;;;5.23;;
7583;SDS011;3833;41.764;26.204;2023-02-01T04:49:53;6.53;;;5.57;;
7583;SDS011;3833;41.764;26.204;2023-02-01T04:52:20;7.07;;;6.47;;
7583;SDS011;3833;41.764;26.204;2023-02-01T04:54:47;6.20;;;5.60;;
7583;SDS011;3833;41.764;26.204;2023-02-01T04:57:14;6.53;;;5.93;;
7583;SDS011;3833;41.764;26.204;2023-02-01T04:59:40;7.10;;;6.50;;
7583;SDS011;3833;41.764;26.204;2023-02-01T05:02:09;6.50;;;5.90;;
7583;SDS011;3833;41.764;26.204;2023-02-01T05:04:35;7.70;;;6.90;;
7583;SDS011;3833;41.764;26.204;2023-02-01T05:07:02;6.40;;;5.83;;
7583;SDS011;3833;41.764;26.204;2023-02-01T05:09:29;6.13;;;5.63;;
7583;SDS011;3833;41.764;26.204;2023-02-01T05:11:56;6.63;;;6.03;;
7583;SDS011;3833;41.764;26.204;2023-02-01T05:14:55;6.17;;;5.57;;
7583;SDS011;3833;41.764;26.204;2023-02-01T05:17:23;5.27;;;4.87;;
7583;SDS011;3833;41.764;26.204;2023-02-01T05:19:50;5.67;;;5.00;;
7583;SDS011;3833;41.764;26.204;2023-02-01T05:22:17;6.07;;;4.97;;
7583;SDS011;3833;41.764;26.204;2023-02-01T05:24:44;4.93;;;4.40;;
7583;SDS011;3833;41.764;26.204;2023-02-01T05:27:11;5.53;;;5.03;;
7583;SDS011;3833;41.764;26.204;2023-02-01T05:29:37;6.77;;;4.90;;
7583;SDS011;3833;41.764;26.204;2023-02-01T05:32:04;6.17;;;4.67;;
7583;SDS011;3833;41.764;26.204;2023-02-01T05:34:33;4.83;;;4.33;;
7583;SDS011;3833;41.764;26.204;2023-02-01T05:36:59;5.13;;;4.70;;
7583;SDS011;3833;41.764;26.204;2023-02-01T05:39:26;5.17;;;4.67;;
7583;SDS011;3833;41.764;26.204;2023-02-01T05:41:53;5.20;;;4.80;;
7583;SDS011;3833;41.764;26.204;2023-02-01T05:44:20;4.83;;;4.33;;
7583;SDS011;3833;41.764;26.204;2023-02-01T05:46:46;5.00;;;4.60;;
7583;SDS011;3833;41.764;26.204;2023-02-01T05:49:13;5.00;;;4.60;;
7583;SDS011;3833;41.764;26.204;2023-02-01T05:51:41;5.07;;;4.57;;
7583;SDS011;3833;41.764;26.204;2023-02-01T05:54:08;5.30;;;4.80;;
7583;SDS011;3833;41.764;26.204;2023-02-01T05:56:35;5.57;;;5.07;;
7583;SDS011;3833;41.764;26.204;2023-02-01T05:59:02;5.80;;;4.57;;
7583;SDS011;3833;41.764;26.204;2023-02-01T06:01:29;5.37;;;4.97;;
7583;SDS011;3833;41.764;26.204;2023-02-01T06:03:56;6.40;;;4.90;;
7583;SDS011;3833;41.764;26.204;2023-02-01T06:06:23;4.90;;;4.40;;
7583;SDS011;3833;41.764;26.204;2023-02-01T06:08:51;4.90;;;4.50;;
7583;SDS011;3833;41.764;26.204;2023-02-01T06:11:17;5.43;;;4.93;;
7583;SDS011;3833;41.764;26.204;2023-02-01T06:13:44;5.23;;;4.80;;
7583;SDS011;3833;41.764;26.204;2023-02-01T06:16:11;6.17;;;5.33;;
7583;SDS011;3833;41.764;26.204;2023-02-01T06:18:40;6.43;;;5.90;;
7583;SDS011;3833;41.764;26.204;2023-02-01T06:21:07;7.00;;;6.50;;
7583;SDS011;3833;41.764;26.204;2023-02-01T06:23:34;7.00;;;6.50;;
7583;SDS011;3833;41.764;26.204;2023-02-01T06:26:03;6.23;;;5.70;;
7583;SDS011;3833;41.764;26.204;2023-02-01T06:28:32;9.97;;;9.20;;
7583;SDS011;3833;41.764;26.204;2023-02-01T06:31:02;8.20;;;7.60;;
7583;SDS011;3833;41.764;26.204;2023-02-01T06:33:31;8.47;;;7.73;;
7583;SDS011;3833;41.764;26.204;2023-02-01T06:35:59;11.00;;;10.43;;
7583;SDS011;3833;41.764;26.204;2023-02-01T06:38:28;13.03;;;12.17;;
7583;SDS011;3833;41.764;26.204;2023-02-01T06:40:56;9.37;;;8.77;;
7583;SDS011;3833;41.764;26.204;2023-02-01T06:43:25;17.67;;;16.77;;
7583;SDS011;3833;41.764;26.204;2023-02-01T06:45:53;12.90;;;12.30;;
7583;SDS011;3833;41.764;26.204;2023-02-01T06:48:25;16.77;;;15.93;;
7583;SDS011;3833;41.764;26.204;2023-02-01T06:50:53;20.93;;;19.93;;
7583;SDS011;3833;41.764;26.204;2023-02-01T06:53:20;29.90;;;28.60;;
7583;SDS011;3833;41.764;26.204;2023-02-01T06:55:53;41.97;;;40.27;;
7583;SDS011;3833;41.764;26.204;2023-02-01T06:58:20;51.03;;;49.00;;
7583;SDS011;3833;41.764;26.204;2023-02-01T07:00:48;24.93;;;23.93;;
7583;SDS011;3833;41.764;26.204;2023-02-01T07:03:15;27.07;;;25.97;;
7583;SDS011;3833;41.764;26.204;2023-02-01T07:05:42;24.70;;;23.70;;
7583;SDS011;3833;41.764;26.204;2023-02-01T07:08:09;40.83;;;39.17;;
7583;SDS011;3833;41.764;26.204;2023-02-01T07:10:36;49.07;;;47.07;;
7583;SDS011;3833;41.764;26.204;2023-02-01T07:13:03;51.30;;;49.20;;
7583;SDS011;3833;41.764;26.204;2023-02-01T07:15:30;52.17;;;50.07;;
7583;SDS011;3833;41.764;26.204;2023-02-01T07:17:59;53.93;;;51.73;;
7583;SDS011;3833;41.764;26.204;2023-02-01T07:20:25;40.67;;;38.87;;
7583;SDS011;3833;41.764;26.204;2023-02-01T07:22:54;47.40;;;45.50;;
7583;SDS011;3833;41.764;26.204;2023-02-01T07:25:22;50.93;;;48.73;;
7583;SDS011;3833;41.764;26.204;2023-02-01T07:27:49;52.53;;;50.33;;
7583;SDS011;3833;41.764;26.204;2023-02-01T07:30:16;53.93;;;51.83;;
7583;SDS011;3833;41.764;26.204;2023-02-01T07:32:43;50.13;;;48.00;;
7583;SDS011;3833;41.764;26.204;2023-02-01T07:35:12;52.57;;;50.27;;
7583;SDS011;3833;41.764;26.204;2023-02-01T07:37:39;35.87;;;34.43;;
7583;SDS011;3833;41.764;26.204;2023-02-01T07:40:06;48.13;;;46.13;;
7583;SDS011;3833;41.764;26.204;2023-02-01T07:42:34;51.97;;;49.70;;
7583;SDS011;3833;41.764;26.204;2023-02-01T07:45:00;52.03;;;49.87;;
7583;SDS011;3833;41.764;26.204;2023-02-01T07:47:28;50.80;;;48.40;;
7583;SDS011;3833;41.764;26.204;2023-02-01T07:49:55;52.03;;;49.93;;
7583;SDS011;3833;41.764;26.204;2023-02-01T07:52:23;41.53;;;39.73;;
7583;SDS011;3833;41.764;26.204;2023-02-01T07:54:50;39.77;;;38.07;;
7583;SDS011;3833;41.764;26.204;2023-02-01T07:57:17;35.03;;;33.57;;
7583;SDS011;3833;41.764;26.204;2023-02-01T07:59:45;36.90;;;35.40;;
7583;SDS011;3833;41.764;26.204;2023-02-01T08:02:26;34.63;;;33.17;;
7583;SDS011;3833;41.764;26.204;2023-02-01T08:04:52;36.00;;;34.37;;
7583;SDS011;3833;41.764;26.204;2023-02-01T08:07:19;35.30;;;33.70;;
7583;SDS011;3833;41.764;26.204;2023-02-01T08:09:48;34.60;;;33.20;;
7583;SDS011;3833;41.764;26.204;2023-02-01T08:12:15;35.40;;;33.87;;
7583;SDS011;3833;41.764;26.204;2023-02-01T08:14:42;34.10;;;32.70;;
7583;SDS011;3833;41.764;26.204;2023-02-01T08:17:09;35.87;;;34.37;;
7583;SDS011;3833;41.764;26.204;2023-02-01T08:19:36;35.30;;;33.70;;
7583;SDS011;3833;41.764;26.204;2023-02-01T08:22:03;35.33;;;33.77;;
7583;SDS011;3833;41.764;26.204;2023-02-01T08:24:32;34.83;;;33.43;;
7583;SDS011;3833;41.764;26.204;2023-02-01T08:27:01;35.00;;;33.50;;
7583;SDS011;3833;41.764;26.204;2023-02-01T08:29:28;33.80;;;32.33;;
7583;SDS011;3833;41.764;26.204;2023-02-01T08:31:55;33.30;;;31.83;;
7583;SDS011;3833;41.764;26.204;2023-02-01T08:34:22;37.37;;;35.63;;
7583;SDS011;3833;41.764;26.204;2023-02-01T08:36:49;34.40;;;32.80;;
7583;SDS011;3833;41.764;26.204;2023-02-01T08:39:17;33.80;;;32.20;;
7583;SDS011;3833;41.764;26.204;2023-02-01T08:41:44;50.83;;;48.63;;
7583;SDS011;3833;41.764;26.204;2023-02-01T08:44:33;47.53;;;45.47;;
7583;SDS011;3833;41.764;26.204;2023-02-01T08:47:01;48.13;;;46.03;;
7583;SDS011;3833;41.764;26.204;2023-02-01T08:49:28;49.30;;;47.03;;
7583;SDS011;3833;41.764;26.204;2023-02-01T08:51:55;49.20;;;47.07;;
7583;SDS011;3833;41.764;26.204;2023-02-01T08:54:22;48.73;;;46.73;;
7583;SDS011;3833;41.764;26.204;2023-02-01T08:56:49;48.77;;;46.77;;
7583;SDS011;3833;41.764;26.204;2023-02-01T08:59:16;48.20;;;46.10;;
7583;SDS011;3833;41.764;26.204;2023-02-01T09:01:44;48.07;;;45.97;;
7583;SDS011;3833;41.764;26.204;2023-02-01T09:04:11;46.37;;;44.40;;
7583;SDS011;3833;41.764;26.204;2023-02-01T09:06:40;46.73;;;44.80;;
7583;SDS011;3833;41.764;26.204;2023-02-01T09:09:07;47.00;;;45.00;;
7583;SDS011;3833;41.764;26.204;2023-02-01T09:11:34;23.77;;;22.77;;
7583;SDS011;3833;41.764;26.204;2023-02-01T09:14:00;19.23;;;18.33;;
7583;SDS011;3833;41.764;26.204;2023-02-01T09:16:27;35.53;;;34.13;;
7583;SDS011;3833;41.764;26.204;2023-02-01T09:18:56;48.20;;;46.20;;
7583;SDS011;3833;41.764;26.204;2023-02-01T09:21:23;47.67;;;45.67;;
7583;SDS011;3833;41.764;26.204;2023-02-01T09:23:50;38.93;;;37.43;;
7583;SDS011;3833;41.764;26.204;2023-02-01T09:26:17;47.20;;;45.20;;
7583;SDS011;3833;41.764;26.204;2023-02-01T09:28:44;47.63;;;45.53;;
7583;SDS011;3833;41.764;26.204;2023-02-01T09:31:11;37.47;;;35.97;;
7583;SDS011;3833;41.764;26.204;2023-02-01T09:33:38;46.47;;;44.47;;
7583;SDS011;3833;41.764;26.204;2023-02-01T09:36:07;47.57;;;45.67;;
7583;SDS011;3833;41.764;26.204;2023-02-01T09:38:34;48.27;;;46.20;;
7583;SDS011;3833;41.764;26.204;2023-02-01T09:41:01;47.50;;;45.50;;
7583;SDS011;3833;41.764;26.204;2023-02-01T09:43:36;50.30;;;48.20;;
7583;SDS011;3833;41.764;26.204;2023-02-01T09:46:15;51.03;;;48.83;;
7583;SDS011;3833;41.764;26.204;2023-02-01T09:48:47;49.43;;;47.30;;
7583;SDS011;3833;41.764;26.204;2023-02-01T09:51:20;48.57;;;46.57;;
7583;SDS011;3833;41.764;26.204;2023-02-01T09:53:55;38.57;;;37.07;;
7583;SDS011;3833;41.764;26.204;2023-02-01T09:56:29;38.77;;;37.10;;
7583;SDS011;3833;41.764;26.204;2023-02-01T09:59:03;49.13;;;47.03;;
7583;SDS011;3833;41.764;26.204;2023-02-01T10:01:35;48.60;;;46.60;;
7583;SDS011;3833;41.764;26.204;2023-02-01T10:04:04;48.07;;;46.03;;
7583;SDS011;3833;41.764;26.204;2023-02-01T10:06:39;49.67;;;47.57;;
7583;SDS011;3833;41.764;26.204;2023-02-01T10:09:25;50.97;;;48.77;;
7583;SDS011;3833;41.764;26.204;2023-02-01T10:12:28;48.10;;;46.00;;
7583;SDS011;3833;41.764;26.204;2023-02-01T10:15:11;49.00;;;47.00;;
7583;SDS011;3833;41.764;26.204;2023-02-01T10:17:49;37.50;;;35.90;;
7583;SDS011;3833;41.764;26.204;2023-02-01T10:20:27;51.13;;;48.73;;
7583;SDS011;3833;41.764;26.204;2023-02-01T10:23:00;48.67;;;46.67;;
7583;SDS011;3833;41.764;26.204;2023-02-01T10:25:36;49.63;;;47.63;;
7583;SDS011;3833;41.764;26.204;2023-02-01T10:28:09;48.07;;;46.07;;
7583;SDS011;3833;41.764;26.204;2023-02-01T10:30:42;46.97;;;45.07;;
7583;SDS011;3833;41.764;26.204;2023-02-01T10:33:14;46.77;;;44.77;;
7583;SDS011;3833;41.764;26.204;2023-02-01T10:35:45;48.53;;;46.53;;
7583;SDS011;3833;41.764;26.204;2023-02-01T10:38:16;51.53;;;49.43;;
7583;SDS011;3833;41.764;26.204;2023-02-01T10:40:51;46.80;;;44.93;;
7583;SDS011;3833;41.764;26.204;2023-02-01T10:43:19;49.57;;;47.47;;
7583;SDS011;3833;41.764;26.204;2023-02-01T10:45:46;48.77;;;46.77;;
7583;SDS011;3833;41.764;26.204;2023-02-01T10:48:13;50.27;;;48.17;;
7583;SDS011;3833;41.764;26.204;2023-02-01T10:50:43;50.93;;;48.93;;
7583;SDS011;3833;41.764;26.204;2023-02-01T10:53:17;49.13;;;47.17;;
7583;SDS011;3833;41.764;26.204;2023-02-01T10:55:48;50.23;;;48.13;;
7583;SDS011;3833;41.764;26.204;2023-02-01T10:58:17;41.87;;;39.77;;
7583;SDS011;3833;41.764;26.204;2023-02-01T11:00:46;49.07;;;47.07;;
7583;SDS011;3833;41.764;26.204;2023-02-01T11:03:22;49.77;;;47.40;;
7583;SDS011;3833;41.764;26.204;2023-02-01T11:05:58;46.73;;;44.83;;
7583;SDS011;3833;41.764;26.204;2023-02-01T11:08:27;39.20;;;37.70;;
7583;SDS011;3833;41.764;26.204;2023-02-01T11:10:57;50.30;;;48.20;;
7583;SDS011;3833;41.764;26.204;2023-02-01T11:13:29;49.03;;;46.93;;
7583;SDS011;3833;41.764;26.204;2023-02-01T11:16:01;49.33;;;47.33;;
7583;SDS011;3833;41.764;26.204;2023-02-01T11:18:29;26.30;;;25.30;;
7583;SDS011;3833;41.764;26.204;2023-02-01T11:20:58;25.77;;;24.77;;
7583;SDS011;3833;41.764;26.204;2023-02-01T11:23:27;41.10;;;39.40;;
7583;SDS011;3833;41.764;26.204;2023-02-01T11:25:58;48.60;;;46.50;;
7583;SDS011;3833;41.764;26.204;2023-02-01T11:28:27;50.83;;;48.93;;
7583;SDS011;3833;41.764;26.204;2023-02-01T11:30:58;56.90;;;54.40;;
7583;SDS011;3833;41.764;26.204;2023-02-01T11:33:29;48.83;;;46.83;;
7583;SDS011;3833;41.764;26.204;2023-02-01T11:36:00;50.43;;;48.50;;
7583;SDS011;3833;41.764;26.204;2023-02-01T11:38:34;51.80;;;49.60;;
7583;SDS011;3833;41.764;26.204;2023-02-01T11:43:51;49.03;;;47.03;;
7583;SDS011;3833;41.764;26.204;2023-02-01T11:46:19;48.03;;;46.03;;
7583;SDS011;3833;41.764;26.204;2023-02-01T11:48:52;47.00;;;45.00;;
7583;SDS011;3833;41.764;26.204;2023-02-01T11:51:24;47.53;;;45.43;;
7583;SDS011;3833;41.764;26.204;2023-02-01T11:57:13;27.00;;;25.83;;
7583;SDS011;3833;41.764;26.204;2023-02-01T11:59:56;26.40;;;25.40;;
7583;SDS011;3833;41.764;26.204;2023-02-01T12:02:35;49.30;;;46.90;;
7583;SDS011;3833;41.764;26.204;2023-02-01T12:05:31;52.70;;;50.10;;
7583;SDS011;3833;41.764;26.204;2023-02-01T12:08:15;52.60;;;50.30;;
7583;SDS011;3833;41.764;26.204;2023-02-01T12:11:08;50.23;;;48.13;;
7583;SDS011;3833;41.764;26.204;2023-02-01T12:13:51;51.60;;;49.50;;
7583;SDS011;3833;41.764;26.204;2023-02-01T12:16:27;50.13;;;47.93;;
7583;SDS011;3833;41.764;26.204;2023-02-01T12:19:05;48.40;;;46.40;;
7583;SDS011;3833;41.764;26.204;2023-02-01T12:21:45;51.13;;;48.83;;
7583;SDS011;3833;41.764;26.204;2023-02-01T12:24:32;48.83;;;46.60;;
7583;SDS011;3833;41.764;26.204;2023-02-01T12:27:17;49.37;;;46.87;;
7583;SDS011;3833;41.764;26.204;2023-02-01T12:30:07;45.03;;;43.10;;
7583;SDS011;3833;41.764;26.204;2023-02-01T12:32:49;47.93;;;45.87;;
7583;SDS011;3833;41.764;26.204;2023-02-01T12:35:38;45.60;;;43.70;;
7583;SDS011;3833;41.764;26.204;2023-02-01T12:38:17;36.93;;;35.30;;
7583;SDS011;3833;41.764;26.204;2023-02-01T12:41:09;42.37;;;40.47;;
7583;SDS011;3833;41.764;26.204;2023-02-01T12:43:47;46.17;;;44.27;;
7583;SDS011;3833;41.764;26.204;2023-02-01T12:46:21;45.37;;;43.27;;
7583;SDS011;3833;41.764;26.204;2023-02-01T12:48:54;44.57;;;42.57;;
7583;SDS011;3833;41.764;26.204;2023-02-01T12:51:27;47.57;;;45.57;;
7583;SDS011;3833;41.764;26.204;2023-02-01T12:54:00;43.30;;;41.47;;
7583;SDS011;3833;41.764;26.204;2023-02-01T12:56:32;41.23;;;39.50;;
7583;SDS011;3833;41.764;26.204;2023-02-01T12:59:04;41.93;;;40.23;;
7583;SDS011;3833;41.764;26.204;2023-02-01T13:01:40;44.60;;;42.60;;
7583;SDS011;3833;41.764;26.204;2023-02-01T13:04:15;23.97;;;23.07;;
7583;SDS011;3833;41.764;26.204;2023-02-01T13:06:47;24.00;;;23.10;;
7583;SDS011;3833;41.764;26.204;2023-02-01T13:09:20;30.33;;;29.20;;
7583;SDS011;3833;41.764;26.204;2023-02-01T13:11:52;28.60;;;27.50;;
7583;SDS011;3833;41.764;26.204;2023-02-01T13:14:25;29.47;;;28.27;;
7583;SDS011;3833;41.764;26.204;2023-02-01T13:16:59;30.03;;;28.83;;
7583;SDS011;3833;41.764;26.204;2023-02-01T13:19:29;37.00;;;35.50;;
7583;SDS011;3833;41.764;26.204;2023-02-01T13:22:07;22.37;;;21.30;;
7583;SDS011;3833;41.764;26.204;2023-02-01T13:24:39;28.00;;;26.80;;
7583;SDS011;3833;41.764;26.204;2023-02-01T13:27:11;26.87;;;25.87;;
7583;SDS011;3833;41.764;26.204;2023-02-01T13:29:40;11.37;;;10.77;;
7583;SDS011;3833;41.764;26.204;2023-02-01T13:35:28;19.60;;;18.87;;
7583;SDS011;3833;41.764;26.204;2023-02-01T13:38:26;26.67;;;25.57;;
7583;SDS011;3833;41.764;26.204;2023-02-01T13:41:15;30.17;;;28.77;;
7583;SDS011;3833;41.764;26.204;2023-02-01T13:43:53;32.10;;;30.80;;
7583;SDS011;3833;41.764;26.204;2023-02-01T13:46:24;30.60;;;29.33;;
7583;SDS011;3833;41.764;26.204;2023-02-01T13:48:57;30.60;;;29.40;;
7583;SDS011;3833;41.764;26.204;2023-02-01T13:51:34;31.23;;;29.93;;
7583;SDS011;3833;41.764;26.204;2023-02-01T13:54:03;44.33;;;42.53;;
7583;SDS011;3833;41.764;26.204;2023-02-01T13:56:39;35.10;;;33.80;;
7583;SDS011;3833;41.764;26.204;2023-02-01T14:08:44;29.50;;;28.30;;
7583;SDS011;3833;41.764;26.204;2023-02-01T14:11:36;21.53;;;20.63;;
7583;SDS011;3833;41.764;26.204;2023-02-01T14:23:29;32.53;;;31.33;;
7583;SDS011;3833;41.764;26.204;2023-02-01T14:26:05;31.23;;;29.97;;
7583;SDS011;3833;41.764;26.204;2023-02-01T14:28:39;27.30;;;26.20;;
7583;SDS011;3833;41.764;26.204;2023-02-01T14:31:14;27.77;;;26.67;;
7583;SDS011;3833;41.764;26.204;2023-02-01T14:33:43;34.50;;;33.13;;
7583;SDS011;3833;41.764;26.204;2023-02-01T14:36:13;21.87;;;20.97;;
7583;SDS011;3833;41.764;26.204;2023-02-01T14:38:47;22.37;;;21.47;;
7583;SDS011;3833;41.764;26.204;2023-02-01T14:41:26;20.87;;;19.97;;
7583;SDS011;3833;41.764;26.204;2023-02-01T14:49:56;33.63;;;32.10;;
7583;SDS011;3833;41.764;26.204;2023-02-01T14:52:30;26.83;;;25.67;;
7583;SDS011;3833;41.764;26.204;2023-02-01T14:55:01;24.73;;;23.83;;
7583;SDS011;3833;41.764;26.204;2023-02-01T14:57:33;21.50;;;20.63;;
7583;SDS011;3833;41.764;26.204;2023-02-01T15:00:19;15.37;;;14.57;;
7583;SDS011;3833;41.764;26.204;2023-02-01T15:02:49;26.47;;;25.57;;
7583;SDS011;3833;41.764;26.204;2023-02-01T15:05:22;33.17;;;31.87;;
7583;SDS011;3833;41.764;26.204;2023-02-01T15:07:54;27.10;;;26.10;;
7583;SDS011;3833;41.764;26.204;2023-02-01T15:10:23;25.13;;;23.97;;
7583;SDS011;3833;41.764;26.204;2023-02-01T15:12:52;25.53;;;24.50;;
7583;SDS011;3833;41.764;26.204;2023-02-01T15:15:19;30.00;;;28.73;;
7583;SDS011;3833;41.764;26.204;2023-02-01T15:17:49;9.10;;;8.60;;
7583;SDS011;3833;41.764;26.204;2023-02-01T15:20:18;12.10;;;11.60;;
7583;SDS011;3833;41.764;26.204;2023-02-01T15:22:52;11.03;;;10.53;;
7583;SDS011;3833;41.764;26.204;2023-02-01T15:25:26;26.87;;;25.67;;
7583;SDS011;3833;41.764;26.204;2023-02-01T15:27:55;22.87;;;21.97;;
7583;SDS011;3833;41.764;26.204;2023-02-01T15:30:24;25.43;;;24.53;;
7583;SDS011;3833;41.764;26.204;2023-02-01T15:32:52;27.97;;;26.97;;
7583;SDS011;3833;41.764;26.204;2023-02-01T15:35:36;27.93;;;26.80;;
7583;SDS011;3833;41.764;26.204;2023-02-01T15:38:25;29.80;;;28.70;;
7583;SDS011;3833;41.764;26.204;2023-02-01T15:40:59;35.47;;;34.07;;
7583;SDS011;3833;41.764;26.204;2023-02-01T15:43:30;28.03;;;27.00;;
7583;SDS011;3833;41.764;26.204;2023-02-01T15:45:59;11.37;;;10.87;;
7583;SDS011;3833;41.764;26.204;2023-02-01T15:48:28;11.97;;;11.47;;
7583;SDS011;3833;41.764;26.204;2023-02-01T15:51:00;30.30;;;28.90;;
7583;SDS011;3833;41.764;26.204;2023-02-01T15:53:27;25.87;;;24.77;;